Time;durP1;ratioP1;P1;durP2;ratioP2;P2;SDS_P1;SDS_P2;PMS_P1;PMS_P2;Temp;Humidity;BMP_temperature;BMP_pressure;BME280_temperature;BME280_humidity;BME280_pressure;Samples;Min_cycle;Max_cycle;Signal;HPM_P1;HPM_P2
2024/01/07 09:56:58;;;;;;;879.43;823.27;;;1.00;99.90;;;;;;5403419;22;20732;-63
2024/01/07 09:59:27;;;;;;;887.50;831.43;;;1.00;99.90;;;;;;5043469;28;20572;-64
2024/01/07 10:01:54;;;;;;;884.10;827.90;;;1.00;99.90;;;;;;5055043;28;20515;-64
2024/01/07 10:04:21;;;;;;;874.00;816.90;;;1.00;99.90;;;;;;5055026;28;20449;-63
2024/01/07 10:06:48;;;;;;;882.93;825.20;;;1.00;99.90;;;;;;5054310;28;20448;-64
2024/01/07 10:09:17;;;;;;;895.73;837.73;;;0.90;99.90;;;;;;5054371;28;20454;-64
2024/01/07 10:11:44;;;;;;;888.20;830.17;;;0.70;99.90;;;;;;5055379;28;20482;-64
2024/01/07 10:14:13;;;;;;;880.10;823.47;;;0.70;99.90;;;;;;5054450;28;20449;-63
2024/01/07 10:16:40;;;;;;;876.27;819.03;;;0.80;99.90;;;;;;5051975;28;20892;-64
2024/01/07 10:19:08;;;;;;;879.17;822.10;;;0.80;99.90;;;;;;5051255;28;20553;-64
2024/01/07 10:21:35;;;;;;;868.10;812.30;;;0.80;99.90;;;;;;5054874;28;20941;-64
2024/01/07 10:24:10;;;;;;;860.97;805.63;;;0.80;99.90;;;;;;5054642;28;20448;-63
2024/01/07 10:26:36;;;;;;;862.90;808.10;;;0.80;99.90;;;;;;5054134;28;20453;-63
2024/01/07 10:29:04;;;;;;;863.10;809.33;;;0.60;99.90;;;;;;5035509;28;20444;-63
2024/01/07 10:31:32;;;;;;;859.83;807.40;;;0.50;99.90;;;;;;5034213;28;20455;-63
2024/01/07 10:33:59;;;;;;;850.93;798.80;;;0.60;99.90;;;;;;5034512;28;20283;-63
2024/01/07 10:36:26;;;;;;;849.93;797.83;;;0.50;99.90;;;;;;5033452;28;20478;-63
2024/01/07 10:38:55;;;;;;;840.83;789.47;;;0.50;99.90;;;;;;5034953;28;20446;-63
2024/01/07 10:41:23;;;;;;;848.33;796.53;;;0.50;99.90;;;;;;5034348;28;20570;-63
2024/01/07 10:43:49;;;;;;;830.67;779.93;;;0.50;99.90;;;;;;5034357;28;20481;-63
2024/01/07 10:46:17;;;;;;;819.50;769.40;;;0.50;99.90;;;;;;5034158;28;20458;-63
2024/01/07 10:48:56;;;;;;;817.53;767.33;;;0.50;99.90;;;;;;5033622;28;20454;-62
2024/01/07 10:51:23;;;;;;;825.97;775.15;;;0.60;99.90;;;;;;5034044;28;20935;-63
2024/01/07 10:53:54;;;;;;;820.03;769.27;;;0.60;99.90;;;;;;5034188;28;20203;-63
2024/01/07 10:56:24;;;;;;;824.63;773.47;;;0.60;99.90;;;;;;5034194;28;20436;-64
2024/01/07 10:58:53;;;;;;;840.20;787.27;;;0.70;99.90;;;;;;5037168;28;21010;-63
2024/01/07 11:01:21;;;;;;;852.77;799.10;;;0.70;99.90;;;;;;5034019;28;20462;-63
2024/01/07 11:04:00;;;;;;;844.77;791.73;;;0.70;99.90;;;;;;5033686;28;20936;-64
2024/01/07 11:06:34;;;;;;;838.27;786.07;;;0.80;99.90;;;;;;5034431;28;20442;-64
2024/01/07 11:09:10;;;;;;;832.03;780.50;;;0.80;99.90;;;;;;5053514;28;20431;-64
2024/01/07 11:11:41;;;;;;;783.10;739.70;;;0.90;99.90;;;;;;5053892;28;20462;-64
2024/01/07 11:14:40;;;;;;;760.93;720.73;;;0.90;99.90;;;;;;5053604;28;20515;-64
2024/01/07 11:17:07;;;;;;;747.13;707.57;;;0.90;99.90;;;;;;5046939;28;20985;-64
2024/01/07 11:19:36;;;;;;;814.43;767.77;;;0.90;99.90;;;;;;5033420;28;20477;-64
2024/01/07 11:22:24;;;;;;;789.07;747.20;;;0.90;99.90;;;;;;5033749;28;20453;-64
2024/01/07 11:24:52;;;;;;;756.83;716.50;;;0.90;99.90;;;;;;5033812;28;20450;-63
2024/01/07 11:27:19;;;;;;;701.37;668.03;;;1.00;99.90;;;;;;5035565;28;20453;-63
2024/01/07 11:29:53;;;;;;;555.00;533.80;;;1.00;99.90;;;;;;5053354;28;20485;-63
2024/01/07 11:32:22;;;;;;;389.57;376.07;;;1.00;99.90;;;;;;5053750;28;20467;-63
2024/01/07 11:34:53;;;;;;;210.17;202.20;;;1.00;99.90;;;;;;5053600;28;20449;-63
2024/01/07 11:37:20;;;;;;;186.63;179.60;;;0.90;99.90;;;;;;5052880;28;20866;-63
2024/01/07 11:39:48;;;;;;;177.10;170.10;;;0.90;99.90;;;;;;5053274;28;20534;-62
2024/01/07 11:42:15;;;;;;;91.43;86.90;;;0.90;99.90;;;;;;5053306;28;20466;-63
2024/01/07 11:44:48;;;;;;;128.93;123.13;;;0.90;99.90;;;;;;5053500;28;20455;-63
2024/01/07 11:47:15;;;;;;;176.67;169.07;;;0.90;99.90;;;;;;5054050;28;20438;-63
2024/01/07 11:49:42;;;;;;;220.20;212.10;;;1.00;99.90;;;;;;5057614;28;20444;-63
2024/01/07 11:52:10;;;;;;;180.17;173.17;;;1.00;99.90;;;;;;5057188;28;20452;-63
2024/01/07 11:54:37;;;;;;;170.90;164.07;;;1.00;99.90;;;;;;5057511;28;20450;-64
2024/01/07 11:57:05;;;;;;;228.60;220.02;;;1.00;99.90;;;;;;5055252;28;20448;-63
2024/01/07 11:59:32;;;;;;;252.77;243.87;;;1.00;99.90;;;;;;5057150;28;20207;-64
2024/01/07 12:02:00;;;;;;;192.33;184.60;;;1.00;99.90;;;;;;5055410;28;20801;-63
2024/01/07 12:04:28;;;;;;;231.47;223.27;;;1.00;99.90;;;;;;5055231;28;20452;-64
2024/01/07 12:06:54;;;;;;;120.40;115.20;;;1.00;99.90;;;;;;5054691;28;20549;-63
2024/01/07 12:09:23;;;;;;;123.53;118.53;;;1.00;99.90;;;;;;5056685;28;20457;-64
2024/01/07 12:11:50;;;;;;;121.07;115.77;;;1.00;99.90;;;;;;5056856;28;20453;-64
2024/01/07 12:14:17;;;;;;;184.30;176.83;;;1.00;99.90;;;;;;5056836;28;20453;-63
2024/01/07 12:16:45;;;;;;;124.70;119.53;;;1.00;99.90;;;;;;5056448;28;20455;-63
2024/01/07 12:19:11;;;;;;;384.50;371.70;;;1.00;99.90;;;;;;5056627;28;20859;-63
2024/01/07 12:21:40;;;;;;;320.40;309.50;;;1.00;99.90;;;;;;5056612;28;20481;-63
2024/01/07 12:24:07;;;;;;;230.97;223.17;;;1.00;99.90;;;;;;5056652;28;20454;-63
2024/01/07 12:26:37;;;;;;;257.77;249.07;;;1.00;99.90;;;;;;5056945;28;20457;-63
2024/01/07 12:29:03;;;;;;;323.13;312.90;;;1.00;99.90;;;;;;5056023;28;20454;-63
2024/01/07 12:31:31;;;;;;;191.93;184.30;;;1.00;99.90;;;;;;5057074;28;20449;-63
2024/01/07 12:33:58;;;;;;;481.90;466.10;;;1.00;99.90;;;;;;5056753;28;20485;-63
2024/01/07 12:36:25;;;;;;;560.00;541.40;;;1.00;99.90;;;;;;5056215;28;20475;-63
2024/01/07 12:38:54;;;;;;;540.30;521.47;;;0.90;99.90;;;;;;5055370;28;20459;-63
2024/01/07 12:41:21;;;;;;;225.10;217.07;;;1.00;99.90;;;;;;5056529;28;20473;-63
2024/01/07 12:43:49;;;;;;;283.43;273.93;;;1.10;99.90;;;;;;5056284;28;20458;-63
2024/01/07 12:46:16;;;;;;;307.43;297.33;;;1.10;99.90;;;;;;5056036;28;20452;-64
2024/01/07 12:48:43;;;;;;;315.33;305.03;;;1.20;99.90;;;;;;5054728;28;20449;-63
2024/01/07 12:51:10;;;;;;;291.27;281.97;;;1.20;99.90;;;;;;5056426;28;20544;-63
2024/01/07 12:53:37;;;;;;;316.93;306.40;;;1.30;99.90;;;;;;5056389;28;20816;-63
2024/01/07 12:56:04;;;;;;;274.30;265.20;;;1.20;99.90;;;;;;5056366;28;20486;-63
2024/01/07 12:58:31;;;;;;;502.43;486.13;;;1.20;99.90;;;;;;5054188;28;20519;-63
2024/01/07 13:01:00;;;;;;;263.00;253.57;;;1.10;99.90;;;;;;5056202;28;20903;-63
2024/01/07 13:03:27;;;;;;;376.90;364.50;;;1.10;99.90;;;;;;5056087;28;20449;-64
2024/01/07 13:05:54;;;;;;;401.50;388.23;;;1.00;99.90;;;;;;5056149;28;20540;-64
2024/01/07 13:08:22;;;;;;;366.27;354.20;;;1.00;99.90;;;;;;5055264;28;20871;-64
2024/01/07 13:10:51;;;;;;;213.87;205.90;;;0.90;99.90;;;;;;5056045;28;20450;-64
2024/01/07 13:13:18;;;;;;;162.43;155.77;;;0.90;99.90;;;;;;5055691;28;20449;-64
2024/01/07 13:15:45;;;;;;;260.08;251.38;;;0.90;99.90;;;;;;5055948;28;20477;-64
2024/01/07 13:18:13;;;;;;;86.23;81.93;;;0.90;99.90;;;;;;5054907;28;20206;-64
2024/01/07 13:20:40;;;;;;;40.13;37.07;;;0.90;99.90;;;;;;5055533;28;20477;-64
2024/01/07 13:23:07;;;;;;;137.97;132.27;;;0.90;99.90;;;;;;5055826;28;20452;-64
2024/01/07 13:25:34;;;;;;;91.33;87.03;;;0.80;99.90;;;;;;5055801;28;20827;-64
2024/01/07 13:28:01;;;;;;;73.07;69.03;;;0.80;99.90;;;;;;5055028;28;20452;-64
2024/01/07 13:30:27;;;;;;;62.10;58.80;;;0.90;99.90;;;;;;5055744;28;20811;-64
2024/01/07 13:32:56;;;;;;;93.57;89.10;;;0.80;99.90;;;;;;5055650;28;20450;-64
2024/01/07 13:35:24;;;;;;;62.83;59.03;;;0.70;99.90;;;;;;5055287;28;20459;-64
2024/01/07 13:37:52;;;;;;;60.27;57.17;;;0.70;99.90;;;;;;5054507;28;20463;-64
2024/01/07 13:40:19;;;;;;;47.50;44.50;;;0.70;99.90;;;;;;5055444;28;20831;-64
2024/01/07 13:42:50;;;;;;;32.67;30.17;;;0.60;99.90;;;;;;5055493;28;20809;-64
2024/01/07 13:45:19;;;;;;;25.13;22.73;;;0.60;99.90;;;;;;5055508;28;20532;-64
2024/01/07 13:47:46;;;;;;;20.43;15.73;;;0.50;99.90;;;;;;5054328;28;20476;-64
2024/01/07 13:50:13;;;;;;;21.13;19.10;;;0.50;99.90;;;;;;5055347;28;20452;-64
2024/01/07 13:52:41;;;;;;;23.17;14.47;;;0.50;99.90;;;;;;5055316;28;20454;-64
2024/01/07 13:55:09;;;;;;;20.80;15.70;;;0.40;99.90;;;;;;5054989;28;20938;-64
2024/01/07 13:57:36;;;;;;;18.37;11.27;;;0.40;99.90;;;;;;5054197;28;20462;-64
2024/01/07 14:00:07;;;;;;;20.70;11.40;;;0.30;99.90;;;;;;5054666;28;20475;-64
2024/01/07 14:02:34;;;;;;;19.17;10.20;;;0.30;99.90;;;;;;5054746;28;20490;-64
2024/01/07 14:05:02;;;;;;;21.27;10.70;;;0.30;99.90;;;;;;5055053;28;20819;-64
2024/01/07 14:07:28;;;;;;;15.50;9.20;;;0.30;99.90;;;;;;5054264;28;20448;-64
2024/01/07 14:09:57;;;;;;;19.37;10.83;;;0.30;99.90;;;;;;5054562;28;20451;-64
2024/01/07 14:12:24;;;;;;;17.43;8.43;;;0.30;99.90;;;;;;5054618;28;20510;-64
2024/01/07 14:14:51;;;;;;;18.00;8.40;;;0.20;99.90;;;;;;5054523;28;20459;-65
2024/01/07 14:17:17;;;;;;;15.90;7.60;;;0.30;99.90;;;;;;5053888;28;20816;-65
2024/01/07 14:19:46;;;;;;;17.17;7.80;;;0.30;99.90;;;;;;5054398;28;20456;-65
2024/01/07 14:22:13;;;;;;;18.10;9.10;;;0.30;99.90;;;;;;5054266;28;20531;-65
2024/01/07 14:24:40;;;;;;;16.40;6.82;;;0.30;99.90;;;;;;5054601;28;20509;-65
2024/01/07 14:27:11;;;;;;;16.13;6.07;;;0.30;99.90;;;;;;5053651;28;20208;-65
2024/01/07 14:29:38;;;;;;;14.20;4.93;;;0.30;99.90;;;;;;5055113;28;20432;-65
2024/01/07 14:32:07;;;;;;;15.43;6.10;;;0.30;99.90;;;;;;5054471;28;20853;-65
2024/01/07 14:34:34;;;;;;;17.47;6.10;;;0.20;99.90;;;;;;5054181;28;20456;-65
2024/01/07 14:37:01;;;;;;;16.00;5.30;;;0.20;99.90;;;;;;5053419;28;20814;-65
2024/01/07 14:39:28;;;;;;;16.57;5.37;;;0.20;99.90;;;;;;5054276;28;20455;-64
2024/01/07 14:41:55;;;;;;;16.10;6.03;;;0.30;99.90;;;;;;5054259;28;20562;-64
2024/01/07 14:44:23;;;;;;;15.63;5.90;;;0.20;99.90;;;;;;5053916;28;20481;-65
2024/01/07 14:46:50;;;;;;;20.00;5.43;;;0.20;99.90;;;;;;5053430;28;20447;-65
2024/01/07 14:49:16;;;;;;;14.93;5.43;;;0.20;99.90;;;;;;5053749;28;20449;-64
2024/01/07 14:51:43;;;;;;;15.13;4.77;;;0.20;99.90;;;;;;5053858;28;20457;-65
2024/01/07 14:54:10;;;;;;;16.23;6.47;;;0.20;99.90;;;;;;5054126;28;20447;-65
2024/01/07 14:56:37;;;;;;;16.40;5.27;;;0.10;99.90;;;;;;5053674;28;20199;-64
2024/01/07 14:59:04;;;;;;;14.80;5.00;;;0.10;99.90;;;;;;5052013;28;20467;-65
2024/01/07 15:01:32;;;;;;;15.77;4.37;;;0.10;99.90;;;;;;5053977;28;20479;-65
2024/01/07 15:03:59;;;;;;;20.30;7.30;;;0.10;99.90;;;;;;5053887;28;20507;-65
2024/01/07 15:06:26;;;;;;;15.35;5.63;;;0.10;99.90;;;;;;5054419;28;20451;-65
2024/01/07 15:08:53;;;;;;;20.52;5.53;;;0.10;99.90;;;;;;5053423;28;20197;-65
2024/01/07 15:11:21;;;;;;;14.10;3.97;;;0.00;99.90;;;;;;5053514;28;20284;-65
2024/01/07 15:13:48;;;;;;;17.03;3.60;;;0.00;99.90;;;;;;5053845;28;20926;-65
2024/01/07 15:16:15;;;;;;;14.80;4.03;;;0.00;99.90;;;;;;5053741;28;20452;-65
2024/01/07 15:18:43;;;;;;;15.40;4.17;;;0.00;99.90;;;;;;5052639;28;20447;-65
2024/01/07 15:21:11;;;;;;;14.63;4.30;;;0.00;99.90;;;;;;5053433;28;20471;-65
2024/01/07 15:23:37;;;;;;;14.57;3.57;;;0.00;99.90;;;;;;5053651;28;20475;-65
2024/01/07 15:26:05;;;;;;;16.63;6.30;;;0.00;99.90;;;;;;5054341;28;20456;-65
2024/01/07 15:28:32;;;;;;;17.80;4.60;;;0.00;99.90;;;;;;5052312;28;20456;-65
2024/01/07 15:31:00;;;;;;;13.90;3.47;;;0.00;99.90;;;;;;5053594;28;20443;-65
2024/01/07 15:33:27;;;;;;;13.80;4.07;;;0.00;99.90;;;;;;5053615;28;20447;-65
2024/01/07 15:35:55;;;;;;;14.45;4.32;;;0.00;99.90;;;;;;5053600;28;20502;-65
2024/01/07 15:38:22;;;;;;;16.80;3.78;;;0.00;99.90;;;;;;5052419;28;20198;-65
2024/01/07 15:40:49;;;;;;;15.10;3.92;;;0.00;99.90;;;;;;5053206;28;20224;-64
2024/01/07 15:43:18;;;;;;;14.60;4.60;;;0.00;99.90;;;;;;5053549;28;20559;-64
2024/01/07 15:45:45;;;;;;;13.87;4.17;;;0.00;99.90;;;;;;5053478;28;20202;-64
2024/01/07 15:48:12;;;;;;;16.97;5.40;;;0.00;99.90;;;;;;5052458;28;20934;-64
2024/01/07 15:50:39;;;;;;;16.20;5.30;;;0.00;99.90;;;;;;5053087;28;20459;-64
2024/01/07 15:53:07;;;;;;;13.83;3.07;;;0.00;99.90;;;;;;5053470;28;20538;-64
2024/01/07 15:55:34;;;;;;;15.30;4.30;;;0.00;99.90;;;;;;5053391;28;20822;-64
2024/01/07 15:58:02;;;;;;;15.37;4.10;;;0.00;99.90;;;;;;5051997;28;20465;-64
2024/01/07 16:00:29;;;;;;;14.30;3.40;;;0.10;99.90;;;;;;5053011;28;20447;-64
2024/01/07 16:02:56;;;;;;;20.73;5.13;;;0.10;99.90;;;;;;5053355;28;20445;-64
2024/01/07 16:05:23;;;;;;;22.13;4.70;;;0.10;99.90;;;;;;5052998;28;20930;-64
2024/01/07 16:07:51;;;;;;;15.90;4.37;;;0.10;99.90;;;;;;5051925;28;20449;-64
2024/01/07 16:10:19;;;;;;;14.13;3.28;;;0.10;99.90;;;;;;5053311;28;20460;-64
2024/01/07 16:12:46;;;;;;;14.00;3.60;;;0.10;99.90;;;;;;5053263;28;20190;-64
2024/01/07 16:15:12;;;;;;;15.43;3.97;;;0.10;99.90;;;;;;5053221;28;20957;-65
2024/01/07 16:17:42;;;;;;;15.40;3.77;;;0.10;99.90;;;;;;5051725;28;20481;-64
2024/01/07 16:20:11;;;;;;;15.07;3.87;;;0.10;99.90;;;;;;5053210;28;20967;-64
2024/01/07 16:22:38;;;;;;;14.65;3.28;;;0.10;99.90;;;;;;5052827;28;20562;-64
2024/01/07 16:25:06;;;;;;;14.87;4.33;;;0.10;99.90;;;;;;5053114;28;20592;-64
2024/01/07 16:27:34;;;;;;;17.37;4.80;;;0.10;99.90;;;;;;5052352;28;20450;-64
2024/01/07 16:30:01;;;;;;;16.10;4.40;;;0.10;99.90;;;;;;5053100;28;20454;-64
2024/01/07 16:32:28;;;;;;;16.03;4.43;;;0.10;99.90;;;;;;5052739;28;20957;-64
2024/01/07 16:34:56;;;;;;;15.53;4.40;;;0.10;99.90;;;;;;5055319;28;20451;-64
2024/01/07 16:37:23;;;;;;;18.30;4.97;;;0.10;99.90;;;;;;5056213;28;20459;-64
2024/01/07 16:39:50;;;;;;;16.07;4.27;;;0.10;99.90;;;;;;5056328;28;20953;-64
2024/01/07 16:42:18;;;;;;;16.13;4.05;;;0.10;99.90;;;;;;5056292;28;20475;-64
2024/01/07 16:44:46;;;;;;;15.07;3.80;;;0.10;99.90;;;;;;5056297;28;20291;-64
2024/01/07 16:47:13;;;;;;;14.70;3.77;;;0.20;99.90;;;;;;5055393;28;20457;-64
2024/01/07 16:49:41;;;;;;;15.13;3.70;;;0.20;99.90;;;;;;5056129;28;20447;-64
2024/01/07 16:52:07;;;;;;;16.57;4.67;;;0.20;99.90;;;;;;5056389;28;20517;-64
2024/01/07 16:54:34;;;;;;;14.63;3.53;;;0.20;99.90;;;;;;5056327;28;20454;-64
2024/01/07 16:57:01;;;;;;;17.03;5.23;;;0.20;99.90;;;;;;5055316;28;20460;-64
2024/01/07 16:59:28;;;;;;;16.07;4.07;;;0.30;99.90;;;;;;5056130;28;20456;-64
2024/01/07 17:01:56;;;;;;;13.50;2.80;;;0.30;99.90;;;;;;5056663;28;20476;-64
2024/01/07 17:04:23;;;;;;;14.43;3.40;;;0.20;99.90;;;;;;5056150;28;20197;-64
2024/01/07 17:06:50;;;;;;;15.05;2.90;;;0.20;99.90;;;;;;5055566;28;20447;-64
2024/01/07 17:09:18;;;;;;;14.93;3.67;;;0.20;99.90;;;;;;5055413;28;20208;-64
2024/01/07 17:11:45;;;;;;;13.97;3.37;;;0.20;99.90;;;;;;5056029;28;20934;-64
2024/01/07 17:14:12;;;;;;;14.10;3.50;;;0.20;99.90;;;;;;5055978;28;20449;-64
2024/01/07 17:16:39;;;;;;;15.85;3.90;;;0.30;99.90;;;;;;5055190;28;20448;-64
2024/01/07 17:19:07;;;;;;;15.43;4.00;;;0.30;99.90;;;;;;5055540;28;20193;-64
2024/01/07 17:21:34;;;;;;;14.80;3.90;;;0.30;99.90;;;;;;5055752;28;20475;-64
2024/01/07 17:24:00;;;;;;;16.70;3.87;;;0.30;99.90;;;;;;5055802;28;20447;-64
2024/01/07 17:26:28;;;;;;;14.30;3.27;;;0.30;99.90;;;;;;5055509;28;20448;-64
2024/01/07 17:28:56;;;;;;;14.47;3.37;;;0.30;99.90;;;;;;5055230;28;20518;-64
2024/01/07 17:31:23;;;;;;;14.43;3.50;;;0.30;99.90;;;;;;5055663;28;20449;-64
2024/01/07 17:33:50;;;;;;;14.50;4.00;;;0.30;99.90;;;;;;5055643;28;20451;-64
2024/01/07 17:36:18;;;;;;;17.05;3.83;;;0.30;99.90;;;;;;5055425;28;20448;-64
2024/01/07 17:38:45;;;;;;;14.60;3.87;;;0.30;99.90;;;;;;5054953;28;20281;-64
2024/01/07 17:41:13;;;;;;;15.03;4.00;;;0.30;99.90;;;;;;5055389;28;20477;-64
2024/01/07 17:43:40;;;;;;;14.82;3.53;;;0.30;99.90;;;;;;5055451;28;20448;-63
2024/01/07 17:46:07;;;;;;;13.87;2.87;;;0.40;97.90;;;;;;5055113;28;20615;-64
2024/01/07 17:48:34;;;;;;;14.10;4.03;;;0.40;97.50;;;;;;5054201;28;20459;-64
2024/01/07 17:51:03;;;;;;;13.77;2.27;;;0.40;97.60;;;;;;5055378;28;20452;-63
2024/01/07 17:53:32;;;;;;;16.80;3.23;;;0.40;97.60;;;;;;5055231;28;20462;-63
2024/01/07 17:55:59;;;;;;;13.97;2.67;;;0.50;97.60;;;;;;5055139;28;20444;-64
2024/01/07 17:58:26;;;;;;;13.88;2.83;;;0.50;95.80;;;;;;5053824;28;20548;-64
2024/01/07 18:00:53;;;;;;;16.17;4.07;;;0.50;94.40;;;;;;5055091;28;20249;-64
2024/01/07 18:03:19;;;;;;;14.43;2.90;;;0.40;94.40;;;;;;5055009;28;20842;-64
2024/01/07 18:05:46;;;;;;;14.03;2.83;;;0.40;94.40;;;;;;5054690;28;20483;-64
2024/01/07 18:08:15;;;;;;;13.50;2.50;;;0.40;94.40;;;;;;5053855;28;20456;-64
2024/01/07 18:10:44;;;;;;;13.97;3.00;;;0.40;94.40;;;;;;5054909;28;20805;-64
2024/01/07 18:13:14;;;;;;;13.80;2.60;;;0.40;94.40;;;;;;5054866;28;20854;-64
2024/01/07 18:15:41;;;;;;;14.73;3.13;;;0.40;94.40;;;;;;5054840;28;20488;-64
2024/01/07 18:18:08;;;;;;;14.83;2.30;;;0.50;94.40;;;;;;5053716;28;20948;-64
2024/01/07 18:20:37;;;;;;;15.70;3.57;;;0.50;94.40;;;;;;5054721;28;20447;-64
2024/01/07 18:23:04;;;;;;;14.93;3.10;;;0.50;94.40;;;;;;5054267;28;20483;-64
2024/01/07 18:25:31;;;;;;;14.53;3.10;;;0.50;94.40;;;;;;5054352;28;20458;-64
2024/01/07 18:27:59;;;;;;;13.52;2.75;;;0.50;94.40;;;;;;5053797;28;20534;-64
2024/01/07 18:30:25;;;;;;;17.23;3.07;;;0.50;94.40;;;;;;5054502;28;20197;-64
2024/01/07 18:32:52;;;;;;;16.50;3.23;;;0.50;94.70;;;;;;5054238;28;20447;-64
2024/01/07 18:35:19;;;;;;;15.60;3.37;;;0.50;94.40;;;;;;5054474;28;20451;-64
2024/01/07 18:37:49;;;;;;;14.97;3.47;;;0.50;94.40;;;;;;5053164;28;20542;-64
2024/01/07 18:40:19;;;;;;;13.83;3.13;;;0.50;94.90;;;;;;5054369;28;20437;-64
